Terminal Aerodrome Forecast
Issued by NWS Topeka, KS

Home | Current Version | Previous Version | Graphics & Text | Print | Product List | Glossary On
Versions: 1 2 3 4 5 6 7 8 9 10 11 12 13 14 15
269
FTUS43 KTOP 301730
TAFTOP
TAF
KTOP 301730Z 3018/0118 01004KT P6SM SKC
      TEMPO 0107/0109 4SM BR MIFG
     FM010900 00000KT 1SM BR SCT010
     FM011400 00000KT 4SM BR SCT015
     FM011600 03004KT P6SM SCT025=

USA.gov is the U.S. government's official web portal to all federal, state and local government web resources and services.